Time;durP1;ratioP1;P1;durP2;ratioP2;P2;SDS_P1;SDS_P2;PMS_P1;PMS_P2;Temp;Humidity;BMP_temperature;BMP_pressure;BME280_temperature;BME280_humidity;BME280_pressure;Samples;Min_cycle;Max_cycle;Signal;HPM_P1;HPM_P2
2022/06/03 00:01:07;;;;;;;17.30;8.10;;;12.40;99.90;;;;;;5072846;28;20194;-69
2022/06/03 00:03:43;;;;;;;15.77;8.17;;;12.40;99.90;;;;;;5074092;28;20196;-68
2022/06/03 00:06:38;;;;;;;14.30;8.60;;;12.20;99.90;;;;;;5077100;28;20186;-67
2022/06/03 00:09:31;;;;;;;25.07;8.10;;;12.50;99.90;;;;;;5078273;28;20223;-67
2022/06/03 00:12:40;;;;;;;11.57;5.60;;;12.90;99.90;;;;;;5065089;28;20180;-67
2022/06/03 00:15:34;;;;;;;9.97;4.37;;;13.00;99.90;;;;;;5071869;28;20214;-64
2022/06/03 00:18:25;;;;;;;12.03;4.00;;;12.80;99.90;;;;;;5073262;28;20215;-68
2022/06/03 00:21:03;;;;;;;6.70;4.00;;;12.80;99.90;;;;;;5070954;28;20199;-67
2022/06/03 00:23:54;;;;;;;7.97;4.40;;;12.70;99.90;;;;;;5071192;28;20184;-67
2022/06/03 00:26:34;;;;;;;10.77;4.47;;;12.80;99.90;;;;;;5069441;28;20725;-67
2022/06/03 00:29:20;;;;;;;8.03;3.80;;;12.80;99.90;;;;;;5073170;28;20590;-67
2022/06/03 00:32:20;;;;;;;10.40;4.70;;;12.80;99.90;;;;;;5070777;28;20178;-68
2022/06/03 00:34:54;;;;;;;10.37;5.97;;;12.40;99.90;;;;;;5073403;28;20187;-67
2022/06/03 00:37:50;;;;;;;12.07;7.17;;;12.40;99.90;;;;;;5073382;28;20179;-68
2022/06/03 00:40:52;;;;;;;11.17;7.13;;;12.40;99.90;;;;;;5072254;28;20193;-65
2022/06/03 00:43:31;;;;;;;10.93;8.27;;;12.60;99.90;;;;;;5072040;28;20171;-65
2022/06/03 00:46:22;;;;;;;13.27;7.50;;;12.60;99.90;;;;;;5073066;28;20190;-66
2022/06/03 00:49:01;;;;;;;13.30;7.90;;;12.80;99.90;;;;;;5071379;28;20199;-67
2022/06/03 00:51:37;;;;;;;13.27;7.57;;;12.80;99.90;;;;;;5070318;28;20709;-65
2022/06/03 00:54:26;;;;;;;12.97;7.50;;;13.00;99.90;;;;;;5072638;28;20206;-66
2022/06/03 00:57:20;;;;;;;13.40;8.33;;;13.10;99.90;;;;;;5070502;28;20178;-66
2022/06/03 01:00:28;;;;;;;11.73;7.10;;;13.10;99.90;;;;;;5072466;28;20172;-66
2022/06/03 01:03:05;;;;;;;15.60;4.97;;;13.10;99.90;;;;;;5068342;28;20200;-67
2022/06/03 01:05:54;;;;;;;7.47;3.60;;;13.00;99.90;;;;;;5072894;28;20520;-67
2022/06/03 01:08:54;;;;;;;9.50;3.90;;;13.10;99.90;;;;;;5072900;28;20309;-66
2022/06/03 01:11:39;;;;;;;12.13;4.90;;;13.30;99.90;;;;;;5072557;28;20593;-67
2022/06/03 01:14:32;;;;;;;12.77;4.27;;;13.30;99.90;;;;;;5072372;28;20187;-66
2022/06/03 01:17:25;;;;;;;9.27;4.40;;;13.20;99.90;;;;;;5054070;28;20195;-67
2022/06/03 01:20:11;;;;;;;9.50;4.93;;;13.30;99.90;;;;;;5072613;28;20195;-68
2022/06/03 01:23:02;;;;;;;20.03;5.87;;;13.50;99.90;;;;;;5091652;28;20171;-67
2022/06/03 01:25:55;;;;;;;10.67;5.63;;;13.70;99.90;;;;;;5092782;28;20174;-67
2022/06/03 01:28:25;;;;;;;11.40;6.30;;;13.60;99.90;;;;;;5076868;28;20649;-66
2022/06/03 01:31:14;;;;;;;14.67;6.50;;;13.80;99.90;;;;;;5070899;28;20199;-68
2022/06/03 01:34:02;;;;;;;13.83;5.73;;;13.90;99.90;;;;;;5071034;28;20188;-67
2022/06/03 01:36:58;;;;;;;8.20;5.00;;;13.70;99.90;;;;;;5071621;28;20187;-67
2022/06/03 01:39:49;;;;;;;15.30;5.60;;;13.70;99.90;;;;;;5070492;28;20196;-68
2022/06/03 01:42:26;;;;;;;9.53;5.20;;;13.80;99.90;;;;;;5072015;28;20180;-68
2022/06/03 01:45:14;;;;;;;11.83;6.97;;;14.10;99.90;;;;;;5069472;28;20194;-67
2022/06/03 01:48:03;;;;;;;10.43;6.30;;;14.30;99.90;;;;;;5070258;28;20230;-67
2022/06/03 01:50:52;;;;;;;12.63;6.20;;;14.60;99.90;;;;;;5070020;28;20535;-66
2022/06/03 01:53:35;;;;;;;17.93;7.77;;;15.40;99.90;;;;;;5070917;28;20949;-67
2022/06/03 01:56:30;;;;;;;18.03;7.70;;;15.80;99.90;;;;;;5069488;28;20172;-66
2022/06/03 01:59:16;;;;;;;12.60;6.00;;;16.60;99.90;;;;;;5071319;28;20226;-68
2022/06/03 02:02:02;;;;;;;16.97;6.43;;;16.90;99.90;;;;;;5071465;28;20179;-67
2022/06/03 02:04:42;;;;;;;9.87;4.37;;;17.20;99.90;;;;;;5061313;28;20183;-68
2022/06/03 02:07:36;;;;;;;10.27;4.63;;;17.20;99.90;;;;;;5071540;28;20180;-67
2022/06/03 02:10:32;;;;;;;9.07;4.27;;;16.90;99.90;;;;;;5071541;28;20268;-67
2022/06/03 02:13:37;;;;;;;11.27;4.57;;;16.20;99.90;;;;;;5071448;28;20195;-67
2022/06/03 02:16:13;;;;;;;12.30;4.97;;;16.30;99.90;;;;;;5069162;28;20207;-67
2022/06/03 02:19:07;;;;;;;7.97;5.60;;;16.30;99.90;;;;;;5071295;28;20223;-67
2022/06/03 02:21:55;;;;;;;8.13;5.27;;;16.30;99.90;;;;;;5071162;28;20241;-68
2022/06/03 02:24:43;;;;;;;6.43;4.13;;;16.40;99.90;;;;;;5071069;28;20267;-67
2022/06/03 02:27:32;;;;;;;8.77;4.50;;;15.60;99.90;;;;;;5071223;28;20222;-67
2022/06/03 02:30:26;;;;;;;9.73;3.83;;;15.80;99.90;;;;;;5071212;28;20268;-67
2022/06/03 02:33:19;;;;;;;14.63;3.97;;;16.00;99.90;;;;;;5071460;28;20210;-68
2022/06/03 02:36:08;;;;;;;6.37;3.90;;;16.10;99.90;;;;;;5057407;28;20223;-66
2022/06/03 02:39:02;;;;;;;10.03;3.90;;;16.20;99.90;;;;;;5071311;28;20191;-67
2022/06/03 02:41:53;;;;;;;6.07;3.70;;;16.20;99.90;;;;;;5070949;28;20203;-68
2022/06/03 02:44:42;;;;;;;9.57;3.93;;;16.10;99.90;;;;;;5071044;28;20192;-67
2022/06/03 02:47:24;;;;;;;5.80;3.60;;;15.90;99.90;;;;;;5070486;28;20236;-68
2022/06/03 02:50:16;;;;;;;6.80;3.37;;;15.90;99.90;;;;;;5073895;28;20426;-67
2022/06/03 02:53:01;;;;;;;6.60;2.80;;;15.80;99.90;;;;;;5061216;28;20293;-66
2022/06/03 02:56:19;;;;;;;5.97;2.77;;;15.80;99.90;;;;;;5075348;28;20218;-67
2022/06/03 02:58:59;;;;;;;6.63;2.87;;;15.80;99.90;;;;;;5059991;28;20192;-66
2022/06/03 03:01:53;;;;;;;6.50;2.37;;;15.60;99.90;;;;;;5073846;28;20194;-70
2022/06/03 03:04:44;;;;;;;6.13;2.60;;;15.30;99.90;;;;;;5074849;28;20175;-68
2022/06/03 03:07:33;;;;;;;8.47;2.97;;;15.40;99.90;;;;;;5075106;28;20192;-68
2022/06/03 03:10:15;;;;;;;8.50;2.93;;;15.60;99.90;;;;;;5075288;28;20215;-67
2022/06/03 03:12:45;;;;;;;3.37;1.87;;;15.60;99.90;;;;;;5074322;28;20179;-67
2022/06/03 03:15:12;;;;;;;4.60;2.27;;;15.10;99.90;;;;;;5074670;28;20645;-68
2022/06/03 03:17:52;;;;;;;2.87;1.93;;;14.90;99.90;;;;;;5074322;28;20239;-68
2022/06/03 03:20:34;;;;;;;12.43;4.77;;;14.70;99.90;;;;;;5075047;28;20176;-67
2022/06/03 03:23:42;;;;;;;26.60;17.37;;;14.70;99.90;;;;;;5074952;28;20188;-66
2022/06/03 03:26:24;;;;;;;770.63;460.10;;;14.50;99.90;;;;;;5073860;28;20659;-68
2022/06/03 03:28:51;;;;;;;419.03;271.33;;;14.50;99.90;;;;;;5074477;28;20238;-67
2022/06/03 03:31:43;;;;;;;174.80;155.27;;;14.50;99.90;;;;;;5074586;28;20197;-67
2022/06/03 03:34:29;;;;;;;13.37;7.00;;;14.50;99.90;;;;;;5074596;28;20183;-68
2022/06/03 03:37:32;;;;;;;19.13;15.53;;;14.40;99.90;;;;;;5074202;28;20195;-68
2022/06/03 03:40:35;;;;;;;8.80;3.53;;;14.50;99.90;;;;;;5074778;28;20179;-68
2022/06/03 03:43:30;;;;;;;7.63;2.97;;;14.40;99.90;;;;;;5072740;28;20263;-68
2022/06/03 03:46:19;;;;;;;8.97;2.80;;;14.50;99.90;;;;;;5073685;28;20192;-67
2022/06/03 03:49:24;;;;;;;7.97;3.30;;;14.60;99.90;;;;;;5073822;28;20223;-68
2022/06/03 03:52:09;;;;;;;25.27;12.63;;;14.70;99.90;;;;;;5070173;28;20223;-67
2022/06/03 03:54:42;;;;;;;12.37;4.70;;;14.60;99.90;;;;;;5071266;28;20204;-67
2022/06/03 03:57:20;;;;;;;28.20;20.00;;;14.60;99.90;;;;;;5073658;28;20184;-67
2022/06/03 03:59:56;;;;;;;50.83;43.57;;;14.50;99.90;;;;;;5073742;28;20172;-67
2022/06/03 04:03:00;;;;;;;163.43;125.37;;;14.40;99.90;;;;;;5073314;28;20665;-68
2022/06/03 04:05:59;;;;;;;145.73;109.73;;;14.50;99.90;;;;;;5073065;28;20183;-68
2022/06/03 04:09:02;;;;;;;22.90;15.30;;;14.50;99.90;;;;;;5073663;28;20203;-68
2022/06/03 04:12:06;;;;;;;27.27;19.23;;;14.40;99.90;;;;;;5073506;28;20183;-67
2022/06/03 04:14:55;;;;;;;57.67;39.10;;;14.30;99.90;;;;;;5071351;28;20204;-68
2022/06/03 04:17:43;;;;;;;10.97;7.20;;;14.20;99.90;;;;;;5073822;28;20249;-67
2022/06/03 04:20:26;;;;;;;36.67;21.70;;;14.20;99.90;;;;;;5095556;28;20221;-67
2022/06/03 04:23:23;;;;;;;8.83;3.73;;;14.20;99.90;;;;;;5071153;28;20191;-68
2022/06/03 04:25:58;;;;;;;16.83;7.33;;;14.20;99.90;;;;;;5071364;28;20176;-68
2022/06/03 04:28:54;;;;;;;20.93;14.70;;;14.30;99.90;;;;;;5070500;28;20198;-68
2022/06/03 04:31:24;;;;;;;4.70;2.70;;;14.30;99.90;;;;;;5072004;28;20902;-67
2022/06/03 04:34:19;;;;;;;2.50;1.70;;;14.40;99.90;;;;;;5072873;28;20184;-68
2022/06/03 04:37:24;;;;;;;3.43;1.67;;;14.50;99.90;;;;;;5070146;28;20194;-67
2022/06/03 04:40:21;;;;;;;3.03;2.00;;;14.60;99.90;;;;;;5073361;28;20175;-67
2022/06/03 04:43:10;;;;;;;42.73;24.10;;;14.60;99.90;;;;;;5073080;28;20619;-69
2022/06/03 04:45:49;;;;;;;15.23;9.53;;;14.60;99.90;;;;;;5073251;28;20176;-68
2022/06/03 04:48:54;;;;;;;456.57;279.73;;;14.40;99.90;;;;;;5073118;28;20233;-67
2022/06/03 04:51:21;;;;;;;48.20;31.63;;;14.40;99.90;;;;;;5064730;28;20190;-68
2022/06/03 04:53:58;;;;;;;319.63;198.80;;;14.30;99.90;;;;;;5073022;28;20213;-68
2022/06/03 04:57:10;;;;;;;468.73;307.87;;;14.30;99.90;;;;;;5072917;28;20248;-67
2022/06/03 05:00:16;;;;;;;87.10;53.33;;;14.30;99.90;;;;;;5072954;28;20183;-68
2022/06/03 05:02:55;;;;;;;10.67;5.93;;;14.20;99.90;;;;;;5072593;28;20194;-68
2022/06/03 05:05:56;;;;;;;2.30;2.10;;;14.20;99.90;;;;;;5072642;28;20183;-69
2022/06/03 05:09:13;;;;;;;10.37;2.83;;;14.20;99.90;;;;;;5072538;28;20196;-67
2022/06/03 05:11:59;;;;;;;13.03;6.87;;;14.20;99.90;;;;;;5056251;28;20187;-67
2022/06/03 05:15:04;;;;;;;3.40;1.70;;;14.20;99.90;;;;;;5073150;28;20259;-68
2022/06/03 05:18:03;;;;;;;4.90;2.63;;;14.20;99.90;;;;;;5072337;28;20243;-68
2022/06/03 05:21:07;;;;;;;8.07;3.40;;;14.20;99.90;;;;;;5072604;28;20191;-69
2022/06/03 05:23:44;;;;;;;4.17;1.93;;;14.20;99.90;;;;;;5072325;28;20176;-68
2022/06/03 05:26:46;;;;;;;7.97;3.20;;;14.20;99.90;;;;;;5072271;28;20183;-68
2022/06/03 05:29:44;;;;;;;6.27;1.53;;;14.10;99.90;;;;;;5072434;28;20644;-67
2022/06/03 05:32:21;;;;;;;7.37;3.70;;;14.10;99.90;;;;;;5072624;28;20537;-68
2022/06/03 05:35:25;;;;;;;5.43;2.03;;;14.10;99.90;;;;;;5072213;28;20181;-68
2022/06/03 05:38:13;;;;;;;6.97;2.70;;;14.00;99.90;;;;;;5071694;28;20184;-68
2022/06/03 05:44:44;;;;;;;8.53;4.07;;;14.00;99.90;;;;;;5051202;28;20198;-68
2022/06/03 05:47:39;;;;;;;2.33;1.30;;;14.00;99.90;;;;;;5072114;28;20179;-68
2022/06/03 05:50:09;;;;;;;6.93;1.63;;;14.00;99.90;;;;;;5070858;28;20345;-68
2022/06/03 05:53:17;;;;;;;9.90;1.93;;;13.90;99.90;;;;;;5071911;28;20186;-68
2022/06/03 05:56:03;;;;;;;11.93;4.20;;;14.00;99.90;;;;;;5071910;28;20265;-68
2022/06/03 05:58:45;;;;;;;4.70;1.50;;;13.90;99.90;;;;;;5071990;28;20218;-67
2022/06/03 06:01:28;;;;;;;3.47;1.80;;;13.90;99.90;;;;;;5071864;28;20194;-68
2022/06/03 06:04:14;;;;;;;4.70;1.70;;;13.90;99.90;;;;;;5072005;28;20179;-68
2022/06/03 06:07:08;;;;;;;5.27;2.60;;;13.90;99.90;;;;;;5071466;28;20180;-68
2022/06/03 06:10:04;;;;;;;4.37;2.00;;;13.90;99.90;;;;;;5071883;28;20215;-68
2022/06/03 06:12:54;;;;;;;2.43;1.40;;;13.90;99.90;;;;;;5071603;28;20186;-69
2022/06/03 06:15:55;;;;;;;2.47;1.40;;;13.90;99.90;;;;;;5072001;28;20175;-68
2022/06/03 06:18:55;;;;;;;3.13;1.70;;;13.90;99.90;;;;;;5071551;28;20226;-68
2022/06/03 06:21:53;;;;;;;2.47;1.10;;;13.90;99.90;;;;;;5071599;28;20205;-67
2022/06/03 06:24:36;;;;;;;2.27;1.30;;;13.80;99.90;;;;;;5070946;28;20233;-68
2022/06/03 06:27:39;;;;;;;3.67;1.30;;;13.80;99.90;;;;;;5071393;28;20634;-69
2022/06/03 06:30:40;;;;;;;6.00;2.77;;;13.80;99.90;;;;;;5071453;28;20685;-68
2022/06/03 06:33:20;;;;;;;3.30;1.10;;;13.70;99.90;;;;;;5066356;28;20274;-69
2022/06/03 06:36:02;;;;;;;4.83;1.40;;;13.70;99.90;;;;;;5071576;28;20262;-68
2022/06/03 06:38:56;;;;;;;9.10;5.33;;;13.70;99.90;;;;;;5071632;28;20195;-69
2022/06/03 06:42:02;;;;;;;15.23;6.80;;;13.70;99.90;;;;;;5072697;28;20208;-68
2022/06/03 06:44:51;;;;;;;4.93;1.80;;;13.60;99.90;;;;;;5069928;28;20174;-68
2022/06/03 06:48:00;;;;;;;4.53;1.77;;;13.50;99.90;;;;;;5068252;28;20179;-68
2022/06/03 06:50:54;;;;;;;4.43;1.57;;;13.40;99.90;;;;;;5035324;28;20209;-68
2022/06/03 06:54:06;;;;;;;3.40;1.40;;;13.40;99.90;;;;;;5070811;28;20191;-68
2022/06/03 06:56:53;;;;;;;3.07;1.80;;;13.30;99.90;;;;;;5068706;28;20270;-68
2022/06/03 06:59:44;;;;;;;8.30;3.20;;;13.30;99.90;;;;;;5069272;28;20271;-68
2022/06/03 07:02:26;;;;;;;3.70;1.77;;;13.20;99.90;;;;;;5070356;28;20189;-68
2022/06/03 07:05:09;;;;;;;3.03;1.80;;;13.10;99.90;;;;;;5071098;28;20584;-69
2022/06/03 07:07:53;;;;;;;3.93;1.47;;;13.00;99.90;;;;;;5070894;28;20196;-69
2022/06/03 07:10:43;;;;;;;2.07;1.43;;;12.90;99.90;;;;;;5070644;28;20704;-68
2022/06/03 07:13:24;;;;;;;2.00;1.47;;;12.80;99.90;;;;;;5068331;28;20588;-68
2022/06/03 07:16:08;;;;;;;1.90;1.43;;;12.70;99.90;;;;;;5070975;28;20234;-68
2022/06/03 07:22:10;;;;;;;4.50;2.47;;;12.60;99.90;;;;;;5071244;28;20184;-67
2022/06/03 07:24:51;;;;;;;2.47;1.70;;;12.50;99.90;;;;;;5070892;28;20322;-68
2022/06/03 07:27:29;;;;;;;4.47;1.77;;;12.60;99.90;;;;;;5070870;28;20263;-68
2022/06/03 07:30:08;;;;;;;2.87;1.53;;;12.50;99.90;;;;;;5069405;28;20686;-68
2022/06/03 07:32:57;;;;;;;4.13;1.60;;;12.50;99.90;;;;;;5070762;28;20179;-68
2022/06/03 07:35:38;;;;;;;4.73;1.50;;;12.50;99.90;;;;;;5072599;28;20618;-68
2022/06/03 07:38:20;;;;;;;7.33;2.30;;;12.40;99.90;;;;;;5074671;28;20608;-69
2022/06/03 07:41:00;;;;;;;3.60;1.40;;;12.30;99.90;;;;;;5074482;28;20183;-68
2022/06/03 07:43:45;;;;;;;3.00;1.40;;;12.30;99.90;;;;;;5074663;28;20203;-68
2022/06/03 07:46:16;;;;;;;3.17;1.37;;;12.30;99.90;;;;;;5054423;28;20193;-68
2022/06/03 07:48:44;;;;;;;3.90;1.90;;;12.30;99.90;;;;;;5054419;28;20285;-67
2022/06/03 07:51:26;;;;;;;4.33;1.50;;;12.30;99.90;;;;;;5054608;28;20519;-69
2022/06/03 07:54:00;;;;;;;4.40;2.07;;;12.30;99.90;;;;;;5054770;28;20187;-68
2022/06/03 07:56:33;;;;;;;2.40;1.70;;;12.30;99.90;;;;;;5074462;28;20710;-68
2022/06/03 07:59:13;;;;;;;3.90;1.37;;;12.30;99.90;;;;;;5077153;28;20178;-68
2022/06/03 08:01:43;;;;;;;1.50;1.13;;;12.30;99.90;;;;;;5100481;28;20173;-67
2022/06/03 08:04:33;;;;;;;3.87;1.30;;;12.30;99.90;;;;;;5088560;28;20257;-68
2022/06/03 08:12:38;;;;;;;2.17;1.20;;;12.20;99.90;;;;;;5073963;28;20196;-68
2022/06/03 08:15:23;;;;;;;3.10;1.40;;;12.20;99.90;;;;;;5074051;28;20209;-68
2022/06/03 08:17:52;;;;;;;1.57;0.93;;;12.20;99.90;;;;;;5073803;28;20684;-68
2022/06/03 08:20:25;;;;;;;3.43;1.00;;;12.10;99.90;;;;;;5073980;28;20190;-68
2022/06/03 08:22:54;;;;;;;1.33;1.00;;;12.10;99.90;;;;;;5072195;28;20198;-67
2022/06/03 08:25:29;;;;;;;2.73;0.80;;;12.10;99.90;;;;;;5072532;28;20177;-68
2022/06/03 08:27:59;;;;;;;1.33;0.90;;;12.10;99.90;;;;;;5073853;28;20669;-68
2022/06/03 08:30:29;;;;;;;1.67;1.00;;;12.10;99.90;;;;;;5073812;28;20225;-68
2022/06/03 08:33:06;;;;;;;4.07;1.00;;;12.10;99.90;;;;;;5073718;28;20200;-69
2022/06/03 08:35:41;;;;;;;3.27;1.10;;;12.00;99.90;;;;;;5073764;28;20671;-68
2022/06/03 08:38:32;;;;;;;2.67;1.20;;;12.00;99.90;;;;;;5073772;28;20197;-70
2022/06/03 08:41:22;;;;;;;2.97;1.30;;;12.00;99.90;;;;;;5073820;28;20648;-67
2022/06/03 08:44:13;;;;;;;4.23;1.20;;;12.00;99.90;;;;;;5073562;28;20271;-67
2022/06/03 08:46:50;;;;;;;2.93;1.20;;;12.00;99.90;;;;;;5072195;28;20172;-67
2022/06/03 08:49:21;;;;;;;1.77;1.07;;;12.00;99.90;;;;;;5073374;28;20638;-69
2022/06/03 08:52:05;;;;;;;2.83;1.43;;;12.00;99.90;;;;;;5073416;28;20174;-67
2022/06/03 08:54:36;;;;;;;2.30;1.33;;;12.00;99.90;;;;;;5073007;28;20174;-67
2022/06/03 08:57:28;;;;;;;1.73;1.33;;;12.00;99.90;;;;;;5072188;28;20222;-67
2022/06/03 09:00:13;;;;;;;3.10;1.90;;;12.00;99.90;;;;;;5072288;28;20185;-68
2022/06/03 09:02:55;;;;;;;3.77;1.60;;;12.00;99.90;;;;;;5073202;28;20216;-68
2022/06/03 09:05:45;;;;;;;2.10;1.57;;;12.00;99.90;;;;;;5072905;28;20183;-68
2022/06/03 09:08:25;;;;;;;2.47;1.47;;;12.00;99.90;;;;;;5051363;28;20193;-68
2022/06/03 09:11:05;;;;;;;3.13;1.90;;;12.00;99.90;;;;;;5072761;28;20180;-68
2022/06/03 09:13:45;;;;;;;6.83;2.57;;;11.90;99.90;;;;;;5072936;28;20176;-68
2022/06/03 09:16:17;;;;;;;8.33;2.30;;;11.90;99.90;;;;;;5072758;28;20192;-69
2022/06/03 09:19:09;;;;;;;4.60;1.93;;;11.90;99.90;;;;;;5072522;28;20583;-68
2022/06/03 09:21:41;;;;;;;3.80;2.07;;;11.80;99.90;;;;;;5060652;28;20188;-68
2022/06/03 09:24:18;;;;;;;3.30;2.07;;;11.80;99.90;;;;;;5072501;28;20275;-68
2022/06/03 09:26:50;;;;;;;2.63;1.20;;;11.80;99.90;;;;;;5072510;28;20177;-69
2022/06/03 09:29:18;;;;;;;5.80;2.33;;;11.80;99.90;;;;;;5072453;28;20215;-68
2022/06/03 09:32:07;;;;;;;3.70;1.80;;;11.70;99.90;;;;;;5072540;28;20178;-68
2022/06/03 09:34:42;;;;;;;1.80;1.30;;;11.70;99.90;;;;;;5072259;28;20177;-67
2022/06/03 09:37:41;;;;;;;1.63;1.10;;;11.60;99.90;;;;;;5071867;28;20277;-67
2022/06/03 09:40:23;;;;;;;5.30;1.30;;;11.50;99.90;;;;;;5067625;28;20560;-68
2022/06/03 09:43:14;;;;;;;6.17;2.17;;;11.50;99.90;;;;;;5072126;28;20173;-68
2022/06/03 09:45:46;;;;;;;3.13;2.00;;;11.50;99.90;;;;;;5070483;28;20233;-68
2022/06/03 09:48:20;;;;;;;2.30;1.40;;;11.60;99.90;;;;;;5071897;28;20290;-68
2022/06/03 09:50:49;;;;;;;3.40;1.40;;;11.60;99.90;;;;;;5072025;28;20173;-68
2022/06/03 09:53:21;;;;;;;4.37;1.30;;;11.60;99.90;;;;;;5071760;28;20255;-67
2022/06/03 09:55:58;;;;;;;3.73;1.73;;;11.60;99.90;;;;;;5072083;28;20305;-68
2022/06/03 09:58:30;;;;;;;3.60;2.20;;;11.60;99.90;;;;;;5071238;28;20177;-67
2022/06/03 10:01:00;;;;;;;2.27;1.20;;;11.60;99.90;;;;;;5071775;28;20176;-68
2022/06/03 10:03:28;;;;;;;2.10;1.17;;;11.70;99.90;;;;;;5071933;28;20173;-68
2022/06/03 10:05:57;;;;;;;1.70;1.00;;;11.60;99.90;;;;;;5071453;28;20209;-67
2022/06/03 10:12:48;;;;;;;2.07;1.17;;;11.70;99.90;;;;;;5071904;28;20180;-69
2022/06/03 10:14:04;;;;;;;3.70;1.57;;;11.70;99.90;;;;;;5071890;28;20208;-68
2022/06/03 10:16:32;;;;;;;2.33;1.80;;;11.70;99.90;;;;;;5071620;28;20262;-68
2022/06/03 10:18:59;;;;;;;4.40;1.90;;;11.60;99.90;;;;;;5071074;28;20721;-68
2022/06/03 10:21:30;;;;;;;2.00;1.20;;;11.60;99.90;;;;;;5071979;28;20180;-69
2022/06/03 10:24:00;;;;;;;6.90;1.40;;;11.60;99.90;;;;;;5072846;28;20657;-69
2022/06/03 10:26:30;;;;;;;2.20;1.20;;;11.60;99.90;;;;;;5072201;28;20191;-69
2022/06/03 10:29:06;;;;;;;5.97;1.77;;;11.60;99.90;;;;;;5072408;28;20225;-68
2022/06/03 10:31:36;;;;;;;2.87;1.50;;;11.50;99.90;;;;;;5072580;28;20191;-69
2022/06/03 10:34:28;;;;;;;3.17;1.83;;;11.50;99.90;;;;;;5072714;28;20180;-69
2022/06/03 10:36:57;;;;;;;4.90;1.80;;;11.50;99.90;;;;;;5069875;28;20274;-68
2022/06/03 10:39:30;;;;;;;3.70;1.60;;;11.50;99.90;;;;;;5072627;28;20194;-69
2022/06/03 10:42:00;;;;;;;3.33;2.10;;;11.50;99.90;;;;;;5071464;28;20180;-68
2022/06/03 10:44:33;;;;;;;5.50;1.60;;;11.50;99.90;;;;;;5072516;28;20200;-68
2022/06/03 10:47:05;;;;;;;3.47;1.20;;;11.50;99.90;;;;;;5072769;28;20177;-69
2022/06/03 10:49:54;;;;;;;3.37;1.13;;;11.40;99.90;;;;;;5072185;28;20214;-69
2022/06/03 11:01:28;;;;;;;1.90;0.90;;;11.40;99.90;;;;;;5071820;28;20186;-68
2022/06/03 11:03:59;;;;;;;1.97;1.00;;;11.40;99.90;;;;;;5071940;28;20184;-69
2022/06/03 11:06:38;;;;;;;1.63;1.00;;;11.40;99.90;;;;;;5072055;28;20536;-68
2022/06/03 11:09:15;;;;;;;1.70;1.00;;;11.40;99.90;;;;;;5070958;28;20206;-67
2022/06/03 11:11:52;;;;;;;2.57;1.10;;;11.30;99.90;;;;;;5076328;28;20185;-69
2022/06/03 11:14:32;;;;;;;2.77;1.60;;;11.30;99.90;;;;;;5076329;28;20227;-67
2022/06/03 11:17:14;;;;;;;1.40;1.20;;;11.30;99.90;;;;;;5076167;28;20176;-68
2022/06/03 11:19:47;;;;;;;2.30;1.00;;;11.20;99.90;;;;;;5073542;28;20268;-68
2022/06/03 11:22:32;;;;;;;1.83;1.33;;;11.20;99.90;;;;;;5075716;28;20259;-69
2022/06/03 11:25:25;;;;;;;3.53;1.50;;;11.10;99.90;;;;;;5076258;28;20181;-69
2022/06/03 11:27:55;;;;;;;3.00;1.60;;;11.00;99.90;;;;;;5076011;28;20521;-69
2022/06/03 11:30:46;;;;;;;6.33;3.33;;;11.00;99.90;;;;;;5075993;28;20223;-68
2022/06/03 11:33:23;;;;;;;4.37;2.50;;;11.00;99.90;;;;;;5075915;28;20192;-69
2022/06/03 11:36:01;;;;;;;5.03;1.93;;;10.90;99.90;;;;;;5075878;28;20177;-68
2022/06/03 11:38:40;;;;;;;8.33;2.10;;;10.90;99.90;;;;;;5075993;28;20178;-68
2022/06/03 11:41:17;;;;;;;2.50;1.60;;;10.90;99.90;;;;;;5075953;28;20256;-69
2022/06/03 11:44:04;;;;;;;3.13;1.60;;;10.90;99.90;;;;;;5075702;28;20263;-69
2022/06/03 11:46:37;;;;;;;3.07;1.80;;;10.90;99.90;;;;;;5075624;28;20169;-69
2022/06/03 11:49:07;;;;;;;13.03;9.00;;;10.80;99.90;;;;;;5075638;28;20734;-68
2022/06/03 11:51:36;;;;;;;2.47;1.90;;;10.80;99.90;;;;;;5075823;28;20177;-67
2022/06/03 11:54:08;;;;;;;2.90;1.60;;;10.70;99.90;;;;;;5075562;28;20179;-67
2022/06/03 11:56:36;;;;;;;1.70;1.43;;;10.70;99.90;;;;;;5075647;28;20204;-68
2022/06/03 11:59:11;;;;;;;2.63;1.93;;;10.70;99.90;;;;;;5074275;28;20710;-69
2022/06/03 12:01:53;;;;;;;3.93;1.90;;;10.60;99.90;;;;;;5075864;28;20172;-68
2022/06/03 12:04:49;;;;;;;2.53;1.73;;;10.60;99.90;;;;;;5075584;28;20190;-69
2022/06/03 12:07:45;;;;;;;2.90;1.50;;;10.60;99.90;;;;;;5075662;28;20189;-69
2022/06/03 12:10:37;;;;;;;12.33;8.60;;;10.60;99.90;;;;;;5074496;28;20700;-68
2022/06/03 12:13:21;;;;;;;4.57;2.27;;;10.60;99.90;;;;;;5074943;28;20627;-69
2022/06/03 12:15:54;;;;;;;4.83;2.87;;;10.60;99.90;;;;;;5075170;28;20247;-69
2022/06/03 12:18:35;;;;;;;3.40;1.80;;;10.60;99.90;;;;;;5055031;28;20228;-69
2022/06/03 12:21:26;;;;;;;4.53;1.93;;;10.60;99.90;;;;;;5063653;28;20294;-69
2022/06/03 12:23:55;;;;;;;4.00;1.80;;;10.60;99.90;;;;;;5075195;28;20660;-69
2022/06/03 12:26:26;;;;;;;2.87;2.13;;;10.60;99.90;;;;;;5074989;28;20172;-68
2022/06/03 12:28:58;;;;;;;5.00;1.80;;;10.50;99.90;;;;;;5075175;28;20211;-68
2022/06/03 12:31:41;;;;;;;3.07;1.93;;;10.50;99.90;;;;;;5074913;28;20508;-69
2022/06/03 12:34:20;;;;;;;4.27;2.20;;;10.50;99.90;;;;;;5075047;28;20179;-69
2022/06/03 12:36:47;;;;;;;4.37;2.50;;;10.50;99.90;;;;;;5074952;28;20218;-69
2022/06/03 12:39:28;;;;;;;3.80;2.00;;;10.50;99.90;;;;;;5074929;28;20180;-68
2022/06/03 12:41:58;;;;;;;3.80;2.40;;;10.60;99.90;;;;;;5073861;28;20225;-68
2022/06/03 12:44:41;;;;;;;6.87;3.03;;;10.60;99.90;;;;;;5074267;28;20176;-68
2022/06/03 12:47:33;;;;;;;3.47;2.03;;;10.60;99.90;;;;;;5072735;28;20181;-68
2022/06/03 12:50:22;;;;;;;3.73;2.10;;;10.60;99.90;;;;;;5071922;28;20213;-68
2022/06/03 12:52:51;;;;;;;2.27;2.00;;;10.60;99.90;;;;;;5071232;28;20251;-68
2022/06/03 12:55:27;;;;;;;2.20;1.63;;;10.60;99.90;;;;;;5073829;28;20184;-68
2022/06/03 12:58:01;;;;;;;3.30;1.60;;;10.60;99.90;;;;;;5073535;28;20722;-68
2022/06/03 13:00:48;;;;;;;3.43;1.40;;;10.50;99.90;;;;;;5072679;28;20604;-68
2022/06/03 13:03:18;;;;;;;3.63;1.40;;;10.50;99.90;;;;;;5073194;28;20173;-68
2022/06/03 13:05:52;;;;;;;4.97;1.73;;;10.60;99.90;;;;;;5073738;28;20184;-69
2022/06/03 13:08:29;;;;;;;2.33;1.40;;;10.60;99.90;;;;;;5074145;28;20188;-68
2022/06/03 13:11:05;;;;;;;2.07;1.60;;;10.60;99.90;;;;;;5074374;28;20639;-68
2022/06/03 13:13:33;;;;;;;2.23;1.83;;;10.60;99.90;;;;;;5073291;28;20192;-68
2022/06/03 13:16:24;;;;;;;3.63;2.30;;;10.50;99.90;;;;;;5073477;28;20208;-68
2022/06/03 13:18:58;;;;;;;6.43;2.13;;;10.50;99.90;;;;;;5072062;28;20306;-67
2022/06/03 13:22:00;;;;;;;3.80;2.30;;;10.50;99.90;;;;;;5071357;28;20655;-67
2022/06/03 13:24:35;;;;;;;4.90;2.10;;;10.40;99.90;;;;;;5069093;28;20199;-68
2022/06/03 13:27:29;;;;;;;4.07;2.40;;;10.50;99.90;;;;;;5072101;28;20181;-67
2022/06/03 13:29:56;;;;;;;4.43;2.43;;;10.50;99.90;;;;;;5072146;28;20215;-68
2022/06/03 13:32:40;;;;;;;3.57;2.20;;;10.50;99.90;;;;;;5073467;28;20656;-68
2022/06/03 13:35:30;;;;;;;2.73;2.00;;;10.50;99.90;;;;;;5053954;28;20645;-68
2022/06/03 13:38:00;;;;;;;3.13;1.90;;;10.50;99.90;;;;;;5051968;28;20181;-69
2022/06/03 13:40:30;;;;;;;3.53;1.87;;;10.50;99.90;;;;;;5053930;28;20256;-69
2022/06/03 13:43:01;;;;;;;1.97;1.70;;;10.50;99.90;;;;;;5053770;28;20199;-68
2022/06/03 13:45:52;;;;;;;4.33;1.70;;;10.50;99.90;;;;;;5068171;28;20177;-69
2022/06/03 13:48:42;;;;;;;5.97;2.10;;;10.50;99.90;;;;;;5073400;28;20611;-69
2022/06/03 13:51:31;;;;;;;4.40;1.80;;;10.50;99.90;;;;;;5071500;28;20637;-69
2022/06/03 13:54:05;;;;;;;6.13;2.87;;;10.50;99.90;;;;;;5072936;28;20632;-69
2022/06/03 13:56:33;;;;;;;5.93;3.10;;;10.40;99.90;;;;;;5071552;28;20200;-68
2022/06/03 13:59:03;;;;;;;7.60;3.50;;;10.40;99.90;;;;;;5072577;28;20189;-68
2022/06/03 14:01:44;;;;;;;6.27;3.90;;;10.40;99.90;;;;;;5072802;28;20215;-69
2022/06/03 14:04:28;;;;;;;9.53;5.67;;;10.50;99.90;;;;;;5072973;28;20175;-70
2022/06/03 14:07:08;;;;;;;12.03;10.47;;;10.50;99.90;;;;;;5073913;28;20181;-69
2022/06/03 14:09:52;;;;;;;13.27;10.00;;;10.40;99.90;;;;;;5073949;28;20201;-69
2022/06/03 14:12:27;;;;;;;9.23;7.70;;;10.50;99.90;;;;;;5072903;28;20729;-69
2022/06/03 14:15:12;;;;;;;7.13;6.10;;;10.50;99.90;;;;;;5071365;28;20190;-68
2022/06/03 14:17:45;;;;;;;6.27;5.30;;;10.40;99.90;;;;;;5066060;28;20232;-68
2022/06/03 14:20:30;;;;;;;7.27;6.27;;;10.40;99.90;;;;;;5072349;28;20186;-69
2022/06/03 14:23:23;;;;;;;9.23;6.70;;;10.40;99.90;;;;;;5058602;28;20183;-68
2022/06/03 14:25:55;;;;;;;6.23;4.73;;;10.30;99.90;;;;;;5072502;28;20637;-69
2022/06/03 14:28:40;;;;;;;7.43;4.90;;;10.30;99.90;;;;;;5072562;28;20547;-69
2022/06/03 14:31:27;;;;;;;5.90;5.33;;;10.20;99.90;;;;;;5070374;28;20215;-69
2022/06/03 14:33:56;;;;;;;5.07;4.30;;;10.20;99.90;;;;;;5072580;28;20252;-68